sensor_id;sensor_type;location;lat;lon;timestamp;temperature;humidity
5130;DHT22;2583;50.946;6.954;2023-04-25T00:01:33;8.70;99.90
5130;DHT22;2583;50.946;6.954;2023-04-25T00:04:03;8.70;99.90
5130;DHT22;2583;50.946;6.954;2023-04-25T00:06:34;8.60;99.90
5130;DHT22;2583;50.946;6.954;2023-04-25T00:09:04;8.60;99.90
5130;DHT22;2583;50.946;6.954;2023-04-25T00:11:34;8.50;99.90
5130;DHT22;2583;50.946;6.954;2023-04-25T00:14:02;8.50;99.90
5130;DHT22;2583;50.946;6.954;2023-04-25T00:16:30;8.60;99.90
5130;DHT22;2583;50.946;6.954;2023-04-25T00:19:02;8.60;99.90
5130;DHT22;2583;50.946;6.954;2023-04-25T00:21:30;8.60;99.90
5130;DHT22;2583;50.946;6.954;2023-04-25T00:23:59;8.70;99.90
5130;DHT22;2583;50.946;6.954;2023-04-25T00:26:27;8.60;99.90
5130;DHT22;2583;50.946;6.954;2023-04-25T00:28:55;8.60;99.90
5130;DHT22;2583;50.946;6.954;2023-04-25T00:31:23;8.50;99.90
5130;DHT22;2583;50.946;6.954;2023-04-25T00:33:51;8.50;99.90
5130;DHT22;2583;50.946;6.954;2023-04-25T00:36:19;8.40;99.90
5130;DHT22;2583;50.946;6.954;2023-04-25T00:38:47;8.40;99.90
5130;DHT22;2583;50.946;6.954;2023-04-25T00:41:15;8.30;99.90
5130;DHT22;2583;50.946;6.954;2023-04-25T00:43:44;8.40;99.90
5130;DHT22;2583;50.946;6.954;2023-04-25T00:46:12;8.30;99.90
5130;DHT22;2583;50.946;6.954;2023-04-25T00:48:39;8.30;99.90
5130;DHT22;2583;50.946;6.954;2023-04-25T00:51:07;8.30;99.90
5130;DHT22;2583;50.946;6.954;2023-04-25T00:53:35;8.30;99.90
5130;DHT22;2583;50.946;6.954;2023-04-25T00:56:03;8.20;99.90
5130;DHT22;2583;50.946;6.954;2023-04-25T00:58:30;8.20;99.90
5130;DHT22;2583;50.946;6.954;2023-04-25T01:00:58;8.10;99.90
5130;DHT22;2583;50.946;6.954;2023-04-25T01:03:26;8.10;99.90
5130;DHT22;2583;50.946;6.954;2023-04-25T01:05:55;8.00;99.90
5130;DHT22;2583;50.946;6.954;2023-04-25T01:08:24;7.90;99.90
5130;DHT22;2583;50.946;6.954;2023-04-25T01:10:54;7.90;99.90
5130;DHT22;2583;50.946;6.954;2023-04-25T01:13:22;7.80;99.90
5130;DHT22;2583;50.946;6.954;2023-04-25T01:15:49;7.80;99.90
5130;DHT22;2583;50.946;6.954;2023-04-25T01:18:18;7.80;99.90
5130;DHT22;2583;50.946;6.954;2023-04-25T01:20:47;7.80;99.90
5130;DHT22;2583;50.946;6.954;2023-04-25T01:23:16;7.70;99.90
5130;DHT22;2583;50.946;6.954;2023-04-25T01:25:45;7.70;99.90
5130;DHT22;2583;50.946;6.954;2023-04-25T01:28:14;7.60;99.90
5130;DHT22;2583;50.946;6.954;2023-04-25T01:30:42;7.60;99.90
5130;DHT22;2583;50.946;6.954;2023-04-25T01:33:10;7.60;99.90
5130;DHT22;2583;50.946;6.954;2023-04-25T01:35:41;7.50;99.90
5130;DHT22;2583;50.946;6.954;2023-04-25T01:38:11;7.50;99.90
5130;DHT22;2583;50.946;6.954;2023-04-25T01:40:40;7.50;99.90
5130;DHT22;2583;50.946;6.954;2023-04-25T01:43:08;7.50;99.90
5130;DHT22;2583;50.946;6.954;2023-04-25T01:45:38;7.50;99.90
5130;DHT22;2583;50.946;6.954;2023-04-25T01:48:10;7.60;99.90
5130;DHT22;2583;50.946;6.954;2023-04-25T01:50:40;7.50;99.90
5130;DHT22;2583;50.946;6.954;2023-04-25T01:53:09;7.50;99.90
5130;DHT22;2583;50.946;6.954;2023-04-25T01:55:36;7.40;99.90
5130;DHT22;2583;50.946;6.954;2023-04-25T01:58:03;7.50;99.90
5130;DHT22;2583;50.946;6.954;2023-04-25T02:00:36;7.50;99.90
5130;DHT22;2583;50.946;6.954;2023-04-25T02:03:07;7.50;99.90
5130;DHT22;2583;50.946;6.954;2023-04-25T02:05:37;7.50;99.90
5130;DHT22;2583;50.946;6.954;2023-04-25T02:08:06;7.50;99.90
5130;DHT22;2583;50.946;6.954;2023-04-25T02:10:34;7.40;99.90
5130;DHT22;2583;50.946;6.954;2023-04-25T02:13:02;7.30;99.90
5130;DHT22;2583;50.946;6.954;2023-04-25T02:15:32;7.30;99.90
5130;DHT22;2583;50.946;6.954;2023-04-25T02:17:59;7.20;99.90
5130;DHT22;2583;50.946;6.954;2023-04-25T02:20:28;7.30;99.90
5130;DHT22;2583;50.946;6.954;2023-04-25T02:22:59;7.20;99.90
5130;DHT22;2583;50.946;6.954;2023-04-25T02:25:27;7.10;99.90
5130;DHT22;2583;50.946;6.954;2023-04-25T02:27:55;7.20;99.90
5130;DHT22;2583;50.946;6.954;2023-04-25T02:30:25;7.20;99.90
5130;DHT22;2583;50.946;6.954;2023-04-25T02:32:52;7.30;99.90
5130;DHT22;2583;50.946;6.954;2023-04-25T02:35:23;7.20;99.90
5130;DHT22;2583;50.946;6.954;2023-04-25T02:37:50;7.20;99.90
5130;DHT22;2583;50.946;6.954;2023-04-25T02:40:18;7.20;99.90
5130;DHT22;2583;50.946;6.954;2023-04-25T02:42:45;7.20;99.90
5130;DHT22;2583;50.946;6.954;2023-04-25T02:45:13;7.20;99.90
5130;DHT22;2583;50.946;6.954;2023-04-25T02:47:40;7.20;99.90
5130;DHT22;2583;50.946;6.954;2023-04-25T02:50:08;7.20;99.90
5130;DHT22;2583;50.946;6.954;2023-04-25T02:52:35;7.20;99.90
5130;DHT22;2583;50.946;6.954;2023-04-25T02:55:02;7.20;99.90
5130;DHT22;2583;50.946;6.954;2023-04-25T02:57:29;7.20;99.90
5130;DHT22;2583;50.946;6.954;2023-04-25T02:59:56;7.30;99.90
5130;DHT22;2583;50.946;6.954;2023-04-25T03:02:24;7.40;99.90
5130;DHT22;2583;50.946;6.954;2023-04-25T03:04:52;7.40;99.90
5130;DHT22;2583;50.946;6.954;2023-04-25T03:07:20;7.40;99.90
5130;DHT22;2583;50.946;6.954;2023-04-25T03:09:48;7.50;99.90
5130;DHT22;2583;50.946;6.954;2023-04-25T03:12:16;7.50;99.90
5130;DHT22;2583;50.946;6.954;2023-04-25T03:14:46;7.40;99.90
5130;DHT22;2583;50.946;6.954;2023-04-25T03:17:14;7.40;99.90
5130;DHT22;2583;50.946;6.954;2023-04-25T03:19:42;7.40;99.90
5130;DHT22;2583;50.946;6.954;2023-04-25T03:22:09;7.40;99.90
5130;DHT22;2583;50.946;6.954;2023-04-25T03:24:37;7.40;99.90
5130;DHT22;2583;50.946;6.954;2023-04-25T03:27:04;7.30;99.90
5130;DHT22;2583;50.946;6.954;2023-04-25T03:29:32;7.40;99.90
5130;DHT22;2583;50.946;6.954;2023-04-25T03:32:00;7.40;99.90
5130;DHT22;2583;50.946;6.954;2023-04-25T03:34:27;7.40;99.90
5130;DHT22;2583;50.946;6.954;2023-04-25T03:36:55;7.40;99.90
5130;DHT22;2583;50.946;6.954;2023-04-25T03:39:23;7.40;99.90
5130;DHT22;2583;50.946;6.954;2023-04-25T03:41:53;7.40;99.90
5130;DHT22;2583;50.946;6.954;2023-04-25T03:44:20;7.50;99.90
5130;DHT22;2583;50.946;6.954;2023-04-25T03:46:57;7.40;99.90
5130;DHT22;2583;50.946;6.954;2023-04-25T03:49:25;7.30;99.90
5130;DHT22;2583;50.946;6.954;2023-04-25T03:51:53;7.40;99.90
5130;DHT22;2583;50.946;6.954;2023-04-25T03:54:20;7.30;99.90
5130;DHT22;2583;50.946;6.954;2023-04-25T03:56:47;7.30;99.90
5130;DHT22;2583;50.946;6.954;2023-04-25T03:59:15;7.30;99.90
5130;DHT22;2583;50.946;6.954;2023-04-25T04:01:42;7.30;99.90
5130;DHT22;2583;50.946;6.954;2023-04-25T04:04:11;7.30;99.90
5130;DHT22;2583;50.946;6.954;2023-04-25T04:06:38;7.30;99.90
5130;DHT22;2583;50.946;6.954;2023-04-25T04:09:06;7.40;99.90
5130;DHT22;2583;50.946;6.954;2023-04-25T04:11:38;7.40;99.90
5130;DHT22;2583;50.946;6.954;2023-04-25T04:14:06;7.50;99.90
5130;DHT22;2583;50.946;6.954;2023-04-25T04:16:33;7.50;99.90
5130;DHT22;2583;50.946;6.954;2023-04-25T04:19:01;7.60;99.90
5130;DHT22;2583;50.946;6.954;2023-04-25T04:21:28;7.60;99.90
5130;DHT22;2583;50.946;6.954;2023-04-25T04:23:55;7.70;99.90
5130;DHT22;2583;50.946;6.954;2023-04-25T04:26:25;7.60;99.90
5130;DHT22;2583;50.946;6.954;2023-04-25T04:28:53;7.60;99.90
5130;DHT22;2583;50.946;6.954;2023-04-25T04:31:22;7.60;99.90
5130;DHT22;2583;50.946;6.954;2023-04-25T04:33:50;7.70;99.90
5130;DHT22;2583;50.946;6.954;2023-04-25T04:36:19;7.70;99.90
5130;DHT22;2583;50.946;6.954;2023-04-25T04:38:49;7.70;99.90
5130;DHT22;2583;50.946;6.954;2023-04-25T04:41:17;7.70;99.90
5130;DHT22;2583;50.946;6.954;2023-04-25T04:43:48;7.70;99.90
5130;DHT22;2583;50.946;6.954;2023-04-25T04:46:16;7.70;99.90
5130;DHT22;2583;50.946;6.954;2023-04-25T04:48:45;7.70;99.90
5130;DHT22;2583;50.946;6.954;2023-04-25T04:51:12;7.80;99.90
5130;DHT22;2583;50.946;6.954;2023-04-25T04:53:40;7.70;99.90
5130;DHT22;2583;50.946;6.954;2023-04-25T04:56:08;7.70;99.90
5130;DHT22;2583;50.946;6.954;2023-04-25T04:58:36;7.70;99.90
5130;DHT22;2583;50.946;6.954;2023-04-25T05:01:03;7.70;99.90
5130;DHT22;2583;50.946;6.954;2023-04-25T05:03:31;7.60;99.90
5130;DHT22;2583;50.946;6.954;2023-04-25T05:05:58;7.70;99.90
5130;DHT22;2583;50.946;6.954;2023-04-25T05:08:26;7.70;99.90
5130;DHT22;2583;50.946;6.954;2023-04-25T05:10:54;7.70;99.90
5130;DHT22;2583;50.946;6.954;2023-04-25T05:13:22;7.70;99.90
5130;DHT22;2583;50.946;6.954;2023-04-25T05:15:50;7.70;99.90
5130;DHT22;2583;50.946;6.954;2023-04-25T05:18:17;7.80;99.90
5130;DHT22;2583;50.946;6.954;2023-04-25T05:20:44;7.90;99.90
5130;DHT22;2583;50.946;6.954;2023-04-25T05:23:11;7.90;99.90
5130;DHT22;2583;50.946;6.954;2023-04-25T05:25:39;7.90;99.90
5130;DHT22;2583;50.946;6.954;2023-04-25T05:28:06;7.90;99.90
5130;DHT22;2583;50.946;6.954;2023-04-25T05:30:34;7.90;99.90
5130;DHT22;2583;50.946;6.954;2023-04-25T05:33:02;8.00;99.90
5130;DHT22;2583;50.946;6.954;2023-04-25T05:35:30;7.90;99.90
5130;DHT22;2583;50.946;6.954;2023-04-25T05:37:57;7.90;99.90
5130;DHT22;2583;50.946;6.954;2023-04-25T05:40:25;7.90;99.90
5130;DHT22;2583;50.946;6.954;2023-04-25T05:42:53;8.00;99.90
5130;DHT22;2583;50.946;6.954;2023-04-25T05:45:20;8.00;99.90
5130;DHT22;2583;50.946;6.954;2023-04-25T05:47:48;7.90;99.90
5130;DHT22;2583;50.946;6.954;2023-04-25T05:50:16;7.80;99.90
5130;DHT22;2583;50.946;6.954;2023-04-25T05:52:44;7.90;99.90
5130;DHT22;2583;50.946;6.954;2023-04-25T05:55:11;8.00;99.90
5130;DHT22;2583;50.946;6.954;2023-04-25T05:57:38;8.00;99.90
5130;DHT22;2583;50.946;6.954;2023-04-25T06:00:12;8.00;99.90
5130;DHT22;2583;50.946;6.954;2023-04-25T06:02:40;8.00;99.90
5130;DHT22;2583;50.946;6.954;2023-04-25T06:05:08;8.10;99.90
5130;DHT22;2583;50.946;6.954;2023-04-25T06:07:36;8.10;99.90
5130;DHT22;2583;50.946;6.954;2023-04-25T06:10:04;8.20;99.90
5130;DHT22;2583;50.946;6.954;2023-04-25T06:12:33;8.10;99.90
5130;DHT22;2583;50.946;6.954;2023-04-25T06:15:01;8.10;99.90
5130;DHT22;2583;50.946;6.954;2023-04-25T06:17:39;8.20;99.90
5130;DHT22;2583;50.946;6.954;2023-04-25T06:20:06;8.30;99.90
5130;DHT22;2583;50.946;6.954;2023-04-25T06:22:34;8.30;99.90
5130;DHT22;2583;50.946;6.954;2023-04-25T06:25:01;8.40;99.90
5130;DHT22;2583;50.946;6.954;2023-04-25T06:27:31;8.50;99.90
5130;DHT22;2583;50.946;6.954;2023-04-25T06:29:58;8.50;99.90
5130;DHT22;2583;50.946;6.954;2023-04-25T06:32:25;8.50;99.90
5130;DHT22;2583;50.946;6.954;2023-04-25T06:34:55;8.70;99.90
5130;DHT22;2583;50.946;6.954;2023-04-25T06:37:22;8.70;99.90
5130;DHT22;2583;50.946;6.954;2023-04-25T06:39:49;8.80;99.90
5130;DHT22;2583;50.946;6.954;2023-04-25T06:42:16;8.80;99.90
5130;DHT22;2583;50.946;6.954;2023-04-25T06:44:44;8.80;99.90
5130;DHT22;2583;50.946;6.954;2023-04-25T06:47:11;8.90;99.90
5130;DHT22;2583;50.946;6.954;2023-04-25T06:49:38;8.80;99.90
5130;DHT22;2583;50.946;6.954;2023-04-25T06:52:05;8.80;99.90
5130;DHT22;2583;50.946;6.954;2023-04-25T06:54:33;8.80;99.90
5130;DHT22;2583;50.946;6.954;2023-04-25T06:57:00;8.90;99.90
5130;DHT22;2583;50.946;6.954;2023-04-25T06:59:28;9.10;99.90
5130;DHT22;2583;50.946;6.954;2023-04-25T07:01:58;9.20;99.90
5130;DHT22;2583;50.946;6.954;2023-04-25T07:04:26;9.30;99.90
5130;DHT22;2583;50.946;6.954;2023-04-25T07:06:53;9.40;99.10
5130;DHT22;2583;50.946;6.954;2023-04-25T07:09:21;9.40;97.80
5130;DHT22;2583;50.946;6.954;2023-04-25T07:11:49;9.40;97.40
5130;DHT22;2583;50.946;6.954;2023-04-25T07:14:17;9.50;97.10
5130;DHT22;2583;50.946;6.954;2023-04-25T07:16:44;9.50;96.80
5130;DHT22;2583;50.946;6.954;2023-04-25T07:19:11;9.50;94.60
5130;DHT22;2583;50.946;6.954;2023-04-25T07:21:37;9.60;93.60
5130;DHT22;2583;50.946;6.954;2023-04-25T07:24:04;9.60;93.60
5130;DHT22;2583;50.946;6.954;2023-04-25T07:26:31;9.60;92.20
5130;DHT22;2583;50.946;6.954;2023-04-25T07:28:58;9.50;92.20
5130;DHT22;2583;50.946;6.954;2023-04-25T07:31:25;9.70;91.00
5130;DHT22;2583;50.946;6.954;2023-04-25T07:33:52;9.70;91.90
5130;DHT22;2583;50.946;6.954;2023-04-25T07:36:18;9.60;89.30
5130;DHT22;2583;50.946;6.954;2023-04-25T07:38:45;9.60;91.00
5130;DHT22;2583;50.946;6.954;2023-04-25T07:41:12;9.60;91.50
5130;DHT22;2583;50.946;6.954;2023-04-25T07:43:39;9.60;91.10
5130;DHT22;2583;50.946;6.954;2023-04-25T07:46:05;9.50;90.60
5130;DHT22;2583;50.946;6.954;2023-04-25T07:48:32;9.60;90.50
5130;DHT22;2583;50.946;6.954;2023-04-25T07:50:59;9.80;87.00
5130;DHT22;2583;50.946;6.954;2023-04-25T07:53:26;9.70;86.40
5130;DHT22;2583;50.946;6.954;2023-04-25T07:55:53;9.80;84.20
5130;DHT22;2583;50.946;6.954;2023-04-25T07:58:19;9.90;80.10
5130;DHT22;2583;50.946;6.954;2023-04-25T08:00:48;9.90;82.60
5130;DHT22;2583;50.946;6.954;2023-04-25T08:03:15;10.10;79.90
5130;DHT22;2583;50.946;6.954;2023-04-25T08:05:43;10.20;76.50
5130;DHT22;2583;50.946;6.954;2023-04-25T08:08:10;10.20;78.30
5130;DHT22;2583;50.946;6.954;2023-04-25T08:10:37;10.30;76.00
5130;DHT22;2583;50.946;6.954;2023-04-25T08:13:03;10.30;75.10
5130;DHT22;2583;50.946;6.954;2023-04-25T08:15:30;10.40;73.30
5130;DHT22;2583;50.946;6.954;2023-04-25T08:17:57;10.40;71.20
5130;DHT22;2583;50.946;6.954;2023-04-25T08:20:24;10.20;62.10
5130;DHT22;2583;50.946;6.954;2023-04-25T08:22:51;10.30;64.50
5130;DHT22;2583;50.946;6.954;2023-04-25T08:25:18;10.30;60.40
5130;DHT22;2583;50.946;6.954;2023-04-25T08:27:45;10.30;58.20
5130;DHT22;2583;50.946;6.954;2023-04-25T08:30:12;10.40;55.60
5130;DHT22;2583;50.946;6.954;2023-04-25T08:32:39;10.40;54.40
5130;DHT22;2583;50.946;6.954;2023-04-25T08:35:06;10.50;56.90
5130;DHT22;2583;50.946;6.954;2023-04-25T08:37:33;10.50;56.50
5130;DHT22;2583;50.946;6.954;2023-04-25T08:40:00;10.80;56.00
5130;DHT22;2583;50.946;6.954;2023-04-25T08:42:27;10.90;52.60
5130;DHT22;2583;50.946;6.954;2023-04-25T08:44:55;10.90;48.50
5130;DHT22;2583;50.946;6.954;2023-04-25T08:47:23;10.90;48.80
5130;DHT22;2583;50.946;6.954;2023-04-25T08:49:51;10.80;47.90
5130;DHT22;2583;50.946;6.954;2023-04-25T08:52:23;10.90;48.90
5130;DHT22;2583;50.946;6.954;2023-04-25T08:54:51;10.80;49.90
5130;DHT22;2583;50.946;6.954;2023-04-25T08:57:19;10.70;47.70
5130;DHT22;2583;50.946;6.954;2023-04-25T08:59:47;10.70;45.20
5130;DHT22;2583;50.946;6.954;2023-04-25T09:02:14;10.70;43.80
5130;DHT22;2583;50.946;6.954;2023-04-25T09:04:43;10.90;43.60
5130;DHT22;2583;50.946;6.954;2023-04-25T09:07:11;10.80;43.50
5130;DHT22;2583;50.946;6.954;2023-04-25T09:09:38;10.70;43.60
5130;DHT22;2583;50.946;6.954;2023-04-25T09:12:06;10.80;43.80
5130;DHT22;2583;50.946;6.954;2023-04-25T09:14:33;10.90;42.40
5130;DHT22;2583;50.946;6.954;2023-04-25T09:17:02;10.80;42.70
5130;DHT22;2583;50.946;6.954;2023-04-25T09:19:31;10.90;41.20
5130;DHT22;2583;50.946;6.954;2023-04-25T09:22:07;10.90;42.50
5130;DHT22;2583;50.946;6.954;2023-04-25T09:24:43;11.10;40.10
5130;DHT22;2583;50.946;6.954;2023-04-25T09:27:18;11.00;40.50
5130;DHT22;2583;50.946;6.954;2023-04-25T09:29:45;11.10;40.30
5130;DHT22;2583;50.946;6.954;2023-04-25T09:32:19;11.10;39.70
5130;DHT22;2583;50.946;6.954;2023-04-25T09:34:48;11.20;36.40
5130;DHT22;2583;50.946;6.954;2023-04-25T09:37:27;11.30;36.30
5130;DHT22;2583;50.946;6.954;2023-04-25T09:39:56;11.20;33.30
5130;DHT22;2583;50.946;6.954;2023-04-25T09:42:24;11.20;31.60
5130;DHT22;2583;50.946;6.954;2023-04-25T09:44:53;10.90;30.30
5130;DHT22;2583;50.946;6.954;2023-04-25T09:47:20;10.80;29.90
5130;DHT22;2583;50.946;6.954;2023-04-25T09:49:51;10.70;30.50
5130;DHT22;2583;50.946;6.954;2023-04-25T09:52:23;10.70;31.90
5130;DHT22;2583;50.946;6.954;2023-04-25T09:54:52;10.60;31.90
5130;DHT22;2583;50.946;6.954;2023-04-25T09:57:20;10.70;33.80
5130;DHT22;2583;50.946;6.954;2023-04-25T09:59:49;10.80;34.30
5130;DHT22;2583;50.946;6.954;2023-04-25T10:02:18;10.90;33.90
5130;DHT22;2583;50.946;6.954;2023-04-25T10:04:51;10.90;34.10
5130;DHT22;2583;50.946;6.954;2023-04-25T10:07:25;10.80;34.30
5130;DHT22;2583;50.946;6.954;2023-04-25T10:10:00;10.80;33.40
5130;DHT22;2583;50.946;6.954;2023-04-25T10:12:32;10.70;34.00
5130;DHT22;2583;50.946;6.954;2023-04-25T10:15:00;10.50;35.20
5130;DHT22;2583;50.946;6.954;2023-04-25T10:17:27;10.30;34.90
5130;DHT22;2583;50.946;6.954;2023-04-25T10:19:57;10.30;36.00
5130;DHT22;2583;50.946;6.954;2023-04-25T10:22:35;10.30;33.40
5130;DHT22;2583;50.946;6.954;2023-04-25T10:25:03;10.40;34.60
5130;DHT22;2583;50.946;6.954;2023-04-25T10:27:31;10.40;34.30
5130;DHT22;2583;50.946;6.954;2023-04-25T10:30:09;10.60;33.70
5130;DHT22;2583;50.946;6.954;2023-04-25T10:32:39;10.70;32.70
5130;DHT22;2583;50.946;6.954;2023-04-25T10:35:17;10.80;32.20
5130;DHT22;2583;50.946;6.954;2023-04-25T10:38:03;10.90;31.90
5130;DHT22;2583;50.946;6.954;2023-04-25T10:40:32;11.10;31.40
5130;DHT22;2583;50.946;6.954;2023-04-25T10:45:59;11.60;27.40
5130;DHT22;2583;50.946;6.954;2023-04-25T10:48:30;11.70;26.20
5130;DHT22;2583;50.946;6.954;2023-04-25T10:51:11;11.60;25.70
5130;DHT22;2583;50.946;6.954;2023-04-25T10:53:38;11.40;25.10
5130;DHT22;2583;50.946;6.954;2023-04-25T10:58:49;11.10;26.60
5130;DHT22;2583;50.946;6.954;2023-04-25T11:01:24;10.80;26.70
5130;DHT22;2583;50.946;6.954;2023-04-25T11:03:57;10.80;27.70
5130;DHT22;2583;50.946;6.954;2023-04-25T11:07:11;10.80;28.70
5130;DHT22;2583;50.946;6.954;2023-04-25T11:09:40;10.80;28.90
5130;DHT22;2583;50.946;6.954;2023-04-25T11:12:08;10.80;29.00
5130;DHT22;2583;50.946;6.954;2023-04-25T11:14:36;10.90;29.20
5130;DHT22;2583;50.946;6.954;2023-04-25T11:17:03;10.90;29.10
5130;DHT22;2583;50.946;6.954;2023-04-25T11:19:30;11.00;29.20
5130;DHT22;2583;50.946;6.954;2023-04-25T11:22:01;11.10;27.90
5130;DHT22;2583;50.946;6.954;2023-04-25T11:24:30;11.20;27.30
5130;DHT22;2583;50.946;6.954;2023-04-25T11:27:01;11.30;25.40
5130;DHT22;2583;50.946;6.954;2023-04-25T11:29:33;11.50;25.70
5130;DHT22;2583;50.946;6.954;2023-04-25T11:32:01;11.80;24.90
5130;DHT22;2583;50.946;6.954;2023-04-25T11:34:30;11.90;24.70
5130;DHT22;2583;50.946;6.954;2023-04-25T11:37:01;12.10;24.70
5130;DHT22;2583;50.946;6.954;2023-04-25T11:39:29;12.30;24.30
5130;DHT22;2583;50.946;6.954;2023-04-25T11:41:56;12.30;23.80
5130;DHT22;2583;50.946;6.954;2023-04-25T11:44:23;12.40;23.50
5130;DHT22;2583;50.946;6.954;2023-04-25T11:46:50;12.50;23.90
5130;DHT22;2583;50.946;6.954;2023-04-25T11:49:17;12.90;23.20
5130;DHT22;2583;50.946;6.954;2023-04-25T11:51:47;12.70;19.10
5130;DHT22;2583;50.946;6.954;2023-04-25T11:54:14;12.30;19.00
5130;DHT22;2583;50.946;6.954;2023-04-25T11:56:43;12.20;19.70
5130;DHT22;2583;50.946;6.954;2023-04-25T11:59:10;12.40;20.10
5130;DHT22;2583;50.946;6.954;2023-04-25T12:01:40;12.50;19.90
5130;DHT22;2583;50.946;6.954;2023-04-25T12:04:15;12.70;19.40
5130;DHT22;2583;50.946;6.954;2023-04-25T12:06:45;12.90;19.40
5130;DHT22;2583;50.946;6.954;2023-04-25T12:09:20;13.20;19.00
5130;DHT22;2583;50.946;6.954;2023-04-25T12:11:58;13.40;18.80
5130;DHT22;2583;50.946;6.954;2023-04-25T12:14:30;13.30;15.70
5130;DHT22;2583;50.946;6.954;2023-04-25T12:16:59;13.60;16.40
5130;DHT22;2583;50.946;6.954;2023-04-25T12:19:31;13.80;13.80
5130;DHT22;2583;50.946;6.954;2023-04-25T12:22:01;13.80;14.40
5130;DHT22;2583;50.946;6.954;2023-04-25T12:24:29;13.80;14.50
5130;DHT22;2583;50.946;6.954;2023-04-25T12:27:01;14.10;13.10
5130;DHT22;2583;50.946;6.954;2023-04-25T12:29:31;14.20;12.10
5130;DHT22;2583;50.946;6.954;2023-04-25T12:32:13;13.80;11.80
5130;DHT22;2583;50.946;6.954;2023-04-25T12:34:40;13.70;12.70
5130;DHT22;2583;50.946;6.954;2023-04-25T12:37:07;13.60;13.40
5130;DHT22;2583;50.946;6.954;2023-04-25T12:39:34;13.60;13.70
5130;DHT22;2583;50.946;6.954;2023-04-25T12:42:00;13.40;13.60
5130;DHT22;2583;50.946;6.954;2023-04-25T12:44:27;13.20;14.20
5130;DHT22;2583;50.946;6.954;2023-04-25T12:46:54;13.20;15.00
5130;DHT22;2583;50.946;6.954;2023-04-25T12:49:21;13.10;14.70
5130;DHT22;2583;50.946;6.954;2023-04-25T12:51:48;13.00;14.10
5130;DHT22;2583;50.946;6.954;2023-04-25T12:54:15;13.00;14.50
5130;DHT22;2583;50.946;6.954;2023-04-25T12:56:42;12.90;15.50
5130;DHT22;2583;50.946;6.954;2023-04-25T12:59:09;12.50;15.80
5130;DHT22;2583;50.946;6.954;2023-04-25T13:01:36;12.70;16.50
5130;DHT22;2583;50.946;6.954;2023-04-25T13:04:03;12.60;16.30
5130;DHT22;2583;50.946;6.954;2023-04-25T13:06:30;12.40;16.60
5130;DHT22;2583;50.946;6.954;2023-04-25T13:08:57;12.40;17.00
5130;DHT22;2583;50.946;6.954;2023-04-25T13:11:24;12.20;16.70
5130;DHT22;2583;50.946;6.954;2023-04-25T13:13:51;12.10;17.30
5130;DHT22;2583;50.946;6.954;2023-04-25T13:16:18;12.20;16.40
5130;DHT22;2583;50.946;6.954;2023-04-25T13:18:47;12.30;15.80
5130;DHT22;2583;50.946;6.954;2023-04-25T13:21:14;12.30;13.20
5130;DHT22;2583;50.946;6.954;2023-04-25T13:23:41;12.80;12.50
5130;DHT22;2583;50.946;6.954;2023-04-25T13:26:10;13.40;10.90
5130;DHT22;2583;50.946;6.954;2023-04-25T13:28:36;14.00;11.10
5130;DHT22;2583;50.946;6.954;2023-04-25T13:31:04;14.30;9.30
5130;DHT22;2583;50.946;6.954;2023-04-25T13:33:31;14.70;9.50
5130;DHT22;2583;50.946;6.954;2023-04-25T13:36:00;15.20;8.90
5130;DHT22;2583;50.946;6.954;2023-04-25T13:38:28;15.50;7.90
5130;DHT22;2583;50.946;6.954;2023-04-25T13:40:55;16.00;7.60
5130;DHT22;2583;50.946;6.954;2023-04-25T13:43:22;16.20;7.10
5130;DHT22;2583;50.946;6.954;2023-04-25T13:45:50;16.50;6.30
5130;DHT22;2583;50.946;6.954;2023-04-25T13:48:19;16.80;6.40
5130;DHT22;2583;50.946;6.954;2023-04-25T13:50:47;16.90;5.10
5130;DHT22;2583;50.946;6.954;2023-04-25T13:53:14;17.10;5.70
5130;DHT22;2583;50.946;6.954;2023-04-25T13:55:41;17.00;5.90
5130;DHT22;2583;50.946;6.954;2023-04-25T13:58:08;17.10;5.80
5130;DHT22;2583;50.946;6.954;2023-04-25T14:00:38;17.50;4.70
5130;DHT22;2583;50.946;6.954;2023-04-25T14:03:06;17.90;4.60
5130;DHT22;2583;50.946;6.954;2023-04-25T14:05:36;18.30;3.70
5130;DHT22;2583;50.946;6.954;2023-04-25T14:08:08;18.70;3.30
5130;DHT22;2583;50.946;6.954;2023-04-25T14:10:36;19.50;2.90
5130;DHT22;2583;50.946;6.954;2023-04-25T14:13:04;19.00;2.60
5130;DHT22;2583;50.946;6.954;2023-04-25T14:15:34;19.40;2.80
5130;DHT22;2583;50.946;6.954;2023-04-25T14:18:02;19.20;3.30
5130;DHT22;2583;50.946;6.954;2023-04-25T14:20:29;17.90;3.80
5130;DHT22;2583;50.946;6.954;2023-04-25T14:22:58;17.30;5.20
5130;DHT22;2583;50.946;6.954;2023-04-25T14:25:25;16.50;7.10
5130;DHT22;2583;50.946;6.954;2023-04-25T14:27:53;15.50;9.90
5130;DHT22;2583;50.946;6.954;2023-04-25T14:30:21;15.00;10.80
5130;DHT22;2583;50.946;6.954;2023-04-25T14:32:49;14.90;11.40
5130;DHT22;2583;50.946;6.954;2023-04-25T14:35:17;14.80;10.80
5130;DHT22;2583;50.946;6.954;2023-04-25T14:37:44;14.30;11.90
5130;DHT22;2583;50.946;6.954;2023-04-25T14:40:12;14.30;9.90
5130;DHT22;2583;50.946;6.954;2023-04-25T14:42:40;14.20;9.50
5130;DHT22;2583;50.946;6.954;2023-04-25T14:45:07;14.10;7.20
5130;DHT22;2583;50.946;6.954;2023-04-25T14:47:38;13.60;5.20
5130;DHT22;2583;50.946;6.954;2023-04-25T14:50:06;13.50;5.10
5130;DHT22;2583;50.946;6.954;2023-04-25T14:52:33;13.50;7.20
5130;DHT22;2583;50.946;6.954;2023-04-25T14:55:00;13.10;9.70
5130;DHT22;2583;50.946;6.954;2023-04-25T14:57:34;12.90;10.60
5130;DHT22;2583;50.946;6.954;2023-04-25T15:00:02;12.60;11.20
5130;DHT22;2583;50.946;6.954;2023-04-25T15:02:36;12.40;11.60
5130;DHT22;2583;50.946;6.954;2023-04-25T15:05:03;12.40;12.50
5130;DHT22;2583;50.946;6.954;2023-04-25T15:07:31;12.20;12.50
5130;DHT22;2583;50.946;6.954;2023-04-25T15:10:00;12.20;12.50
5130;DHT22;2583;50.946;6.954;2023-04-25T15:12:32;12.20;12.30
5130;DHT22;2583;50.946;6.954;2023-04-25T15:15:09;12.20;12.30
5130;DHT22;2583;50.946;6.954;2023-04-25T15:17:51;12.40;12.00
5130;DHT22;2583;50.946;6.954;2023-04-25T15:20:26;12.40;11.70
5130;DHT22;2583;50.946;6.954;2023-04-25T15:22:56;12.30;11.10
5130;DHT22;2583;50.946;6.954;2023-04-25T15:25:24;12.20;10.80
5130;DHT22;2583;50.946;6.954;2023-04-25T15:27:51;12.20;11.10
5130;DHT22;2583;50.946;6.954;2023-04-25T15:30:18;12.00;11.40
5130;DHT22;2583;50.946;6.954;2023-04-25T15:32:46;12.10;11.60
5130;DHT22;2583;50.946;6.954;2023-04-25T15:35:14;12.20;11.80
5130;DHT22;2583;50.946;6.954;2023-04-25T15:37:42;12.30;11.70
5130;DHT22;2583;50.946;6.954;2023-04-25T15:40:14;12.20;11.70
5130;DHT22;2583;50.946;6.954;2023-04-25T15:42:49;12.20;11.70
5130;DHT22;2583;50.946;6.954;2023-04-25T15:45:22;12.30;12.20
5130;DHT22;2583;50.946;6.954;2023-04-25T15:47:53;12.50;12.80
5130;DHT22;2583;50.946;6.954;2023-04-25T15:50:20;12.50;13.10
5130;DHT22;2583;50.946;6.954;2023-04-25T15:52:49;12.40;13.30
5130;DHT22;2583;50.946;6.954;2023-04-25T15:55:17;12.40;13.40
5130;DHT22;2583;50.946;6.954;2023-04-25T15:57:44;12.20;13.60
5130;DHT22;2583;50.946;6.954;2023-04-25T16:00:12;11.90;13.60
5130;DHT22;2583;50.946;6.954;2023-04-25T16:02:41;11.80;14.10
5130;DHT22;2583;50.946;6.954;2023-04-25T16:05:09;11.70;14.80
5130;DHT22;2583;50.946;6.954;2023-04-25T16:07:39;11.70;15.70
5130;DHT22;2583;50.946;6.954;2023-04-25T16:10:08;11.60;15.40
5130;DHT22;2583;50.946;6.954;2023-04-25T16:12:35;11.70;15.80
5130;DHT22;2583;50.946;6.954;2023-04-25T16:15:03;11.60;16.10
5130;DHT22;2583;50.946;6.954;2023-04-25T16:17:30;11.50;15.60
5130;DHT22;2583;50.946;6.954;2023-04-25T16:19:59;11.80;16.30
5130;DHT22;2583;50.946;6.954;2023-04-25T16:22:27;12.00;16.20
5130;DHT22;2583;50.946;6.954;2023-04-25T16:24:54;12.20;15.30
5130;DHT22;2583;50.946;6.954;2023-04-25T16:27:21;12.50;15.50